createdAt,value
2019-02-02T00:02:02.322Z,81.25
2019-02-02T00:04:32.907Z,81.26
2019-02-02T00:07:03.010Z,81.28
2019-02-02T00:09:33.136Z,81.37
2019-02-02T00:12:03.321Z,81.30
2019-02-02T00:14:33.430Z,81.40
2019-02-02T00:17:03.552Z,81.36
2019-02-02T00:19:33.655Z,81.35
2019-02-02T00:22:05.100Z,81.27
2019-02-02T00:24:35.214Z,81.29
2019-02-02T00:27:05.788Z,81.29
2019-02-02T00:29:35.945Z,81.27
2019-02-02T00:32:06.262Z,81.42
2019-02-02T00:34:36.407Z,81.48
2019-02-02T00:37:06.673Z,81.45
2019-02-02T00:39:36.821Z,81.45
2019-02-02T00:42:06.957Z,81.46
2019-02-02T00:44:37.055Z,81.55
2019-02-02T00:47:07.222Z,81.46
2019-02-02T00:49:37.330Z,81.39
2019-02-02T00:52:07.458Z,81.33
2019-02-02T00:54:37.587Z,81.43
2019-02-02T00:57:07.742Z,81.35
2019-02-02T00:59:37.861Z,81.46
2019-02-02T01:02:08.920Z,81.47
2019-02-02T01:04:39.030Z,81.53
2019-02-02T01:07:09.190Z,81.76
2019-02-02T01:09:39.304Z,81.51
2019-02-02T01:12:09.446Z,81.56
2019-02-02T01:14:39.588Z,81.58
2019-02-02T01:17:09.900Z,81.61
2019-02-02T01:19:40.032Z,81.48
2019-02-02T01:22:10.165Z,81.37
2019-02-02T01:24:40.271Z,81.14
2019-02-02T01:27:11.473Z,81.21
2019-02-02T01:29:41.586Z,81.01
2019-02-02T01:32:13.916Z,80.93
2019-02-02T01:34:43.550Z,81.11
2019-02-02T01:37:13.678Z,81.20
2019-02-02T01:39:43.784Z,80.79
2019-02-02T01:42:13.918Z,80.76
2019-02-02T01:44:44.028Z,80.69
2019-02-02T01:47:14.218Z,80.72
2019-02-02T01:49:44.328Z,80.49
2019-02-02T01:52:14.448Z,80.59
2019-02-02T01:54:44.607Z,80.77
2019-02-02T01:57:14.768Z,80.74
2019-02-02T01:59:44.886Z,80.75
2019-02-02T02:02:15.034Z,80.84
2019-02-02T02:04:45.141Z,80.86
2019-02-02T02:07:15.253Z,80.73
2019-02-02T02:09:45.387Z,80.86
2019-02-02T02:12:15.594Z,81.04
2019-02-02T02:14:45.731Z,80.96
2019-02-02T02:17:15.895Z,80.76
2019-02-02T02:19:46.051Z,80.87
2019-02-02T02:22:16.180Z,80.81
2019-02-02T02:24:47.392Z,80.81
2019-02-02T02:27:17.527Z,80.75
2019-02-02T02:29:47.643Z,80.75
2019-02-02T02:32:17.778Z,80.72
2019-02-02T02:34:47.920Z,80.65
2019-02-02T02:37:18.043Z,80.63
2019-02-02T02:39:48.148Z,80.83
2019-02-02T02:42:18.272Z,80.85
2019-02-02T02:44:48.544Z,80.80
2019-02-02T02:47:18.710Z,80.69
2019-02-02T02:49:48.848Z,80.79
2019-02-02T02:52:18.974Z,80.86
2019-02-02T02:54:49.111Z,80.81
2019-02-02T02:57:19.288Z,80.83
2019-02-02T02:59:49.410Z,80.72
2019-02-02T03:02:19.755Z,80.67
2019-02-02T03:04:49.942Z,80.87
2019-02-02T03:07:20.077Z,80.76
2019-02-02T03:09:50.186Z,80.65
2019-02-02T03:12:20.635Z,80.93
2019-02-02T03:14:50.825Z,80.86
2019-02-02T03:17:21.023Z,80.45
2019-02-02T03:19:51.173Z,80.53
2019-02-02T03:22:21.310Z,80.65
2019-02-02T03:24:51.422Z,80.38
2019-02-02T03:27:21.543Z,80.02
2019-02-02T03:29:51.660Z,80.12
2019-02-02T03:32:21.843Z,80.22
2019-02-02T03:34:51.918Z,79.77
2019-02-02T03:37:22.060Z,80.17
2019-02-02T03:39:52.183Z,80.22
2019-02-02T03:42:23.035Z,80.10
2019-02-02T03:44:53.139Z,79.65
2019-02-02T03:47:23.310Z,79.92
2019-02-02T03:49:53.437Z,79.67
2019-02-02T03:52:23.589Z,79.62
2019-02-02T03:54:53.715Z,79.73
2019-02-02T03:57:24.214Z,79.64
2019-02-02T03:59:54.331Z,79.56
2019-02-02T04:02:24.461Z,79.76
2019-02-02T04:04:54.586Z,79.73
2019-02-02T04:07:24.715Z,79.66
2019-02-02T04:09:54.823Z,79.94
2019-02-02T04:12:25.210Z,79.78
2019-02-02T04:14:55.331Z,79.82
2019-02-02T04:17:25.454Z,79.54
2019-02-02T04:19:55.572Z,79.85
2019-02-02T04:22:25.896Z,79.90
2019-02-02T04:24:56.012Z,79.78
2019-02-02T04:27:26.157Z,79.87
2019-02-02T04:29:56.279Z,79.72
2019-02-02T04:32:26.450Z,79.80
2019-02-02T04:34:56.572Z,79.79
2019-02-02T04:37:26.704Z,79.76
2019-02-02T04:39:56.821Z,79.74
2019-02-02T04:42:27.012Z,79.37
2019-02-02T04:44:57.142Z,79.74
2019-02-02T04:47:27.258Z,79.82
2019-02-02T04:49:57.373Z,79.78
2019-02-02T04:52:27.536Z,79.77
2019-02-02T04:54:57.644Z,79.58
2019-02-02T04:57:27.788Z,79.58
2019-02-02T04:59:57.906Z,79.56
2019-02-02T05:02:30.495Z,79.50
2019-02-02T05:05:01.428Z,79.65
2019-02-02T05:07:31.571Z,79.59
2019-02-02T05:10:01.737Z,79.61
2019-02-02T05:12:31.969Z,79.56
2019-02-02T05:15:02.090Z,79.67
2019-02-02T05:17:32.224Z,79.70
2019-02-02T05:20:02.330Z,79.46
2019-02-02T05:22:32.492Z,79.66
2019-02-02T05:25:02.605Z,79.52
2019-02-02T05:27:32.707Z,79.71
2019-02-02T05:30:02.903Z,79.57
2019-02-02T05:32:33.065Z,79.57
2019-02-02T05:35:03.217Z,79.55
2019-02-02T05:37:33.368Z,79.71
2019-02-02T05:40:03.502Z,79.66
2019-02-02T05:42:33.662Z,79.89
2019-02-02T05:45:04.080Z,79.48
2019-02-02T05:47:34.193Z,79.48
2019-02-02T05:50:06.013Z,79.50
2019-02-02T05:52:36.155Z,79.31
2019-02-02T05:55:07.786Z,79.32
2019-02-02T05:57:37.940Z,79.38
2019-02-02T06:00:12.438Z,79.31
2019-02-02T06:02:42.598Z,79.23
2019-02-02T06:05:12.744Z,79.33
2019-02-02T06:07:42.900Z,79.44
2019-02-02T06:10:14.254Z,79.53
2019-02-02T06:12:44.410Z,79.54
2019-02-02T06:15:14.774Z,79.55
2019-02-02T06:17:44.920Z,79.47
2019-02-02T06:20:15.169Z,79.58
2019-02-02T06:22:45.344Z,79.56
2019-02-02T06:25:15.807Z,79.52
2019-02-02T06:27:45.936Z,79.52
2019-02-02T06:30:17.911Z,79.45
2019-02-02T06:32:48.043Z,79.40
2019-02-02T06:35:18.311Z,79.47
2019-02-02T06:37:48.742Z,79.50
2019-02-02T06:40:19.214Z,79.32
2019-02-02T06:42:49.347Z,79.37
2019-02-02T06:45:22.817Z,79.21
2019-02-02T06:47:53.064Z,79.52
2019-02-02T06:50:23.198Z,79.30
2019-02-02T06:52:53.482Z,79.48
2019-02-02T06:55:23.612Z,79.20
2019-02-02T06:57:53.739Z,79.14
2019-02-02T07:00:26.506Z,79.05
2019-02-02T07:02:57.075Z,78.90
2019-02-02T07:05:27.225Z,78.91
2019-02-02T07:07:57.344Z,79.05
2019-02-02T07:10:27.793Z,78.91
2019-02-02T07:12:57.939Z,78.88
2019-02-02T07:15:29.230Z,78.60
2019-02-02T07:17:59.375Z,78.60
2019-02-02T07:20:30.326Z,78.26
2019-02-02T07:23:00.449Z,78.44
2019-02-02T07:25:30.583Z,78.42
2019-02-02T07:28:00.720Z,78.52
2019-02-02T07:30:30.863Z,78.53
2019-02-02T07:33:00.984Z,78.08
2019-02-02T07:35:31.116Z,78.30
2019-02-02T07:38:01.271Z,77.82
2019-02-02T07:40:31.396Z,77.88
2019-02-02T07:43:01.526Z,78.19
2019-02-02T07:45:32.074Z,78.08
2019-02-02T07:48:02.182Z,78.00
2019-02-02T07:50:32.291Z,77.87
2019-02-02T07:53:02.417Z,77.34
2019-02-02T07:55:32.546Z,77.38
2019-02-02T07:58:02.671Z,77.51
2019-02-02T08:00:41.465Z,77.67
2019-02-02T08:03:11.395Z,77.77
2019-02-02T08:05:41.624Z,77.74
2019-02-02T08:08:11.739Z,77.86
2019-02-02T08:10:41.886Z,78.10
2019-02-02T08:13:12.309Z,78.11
2019-02-02T08:15:42.443Z,78.09
2019-02-02T08:18:12.594Z,78.23
2019-02-02T08:20:42.672Z,78.36
2019-02-02T08:23:12.861Z,78.53
2019-02-02T08:25:43.195Z,78.65
2019-02-02T08:28:13.309Z,78.76
2019-02-02T08:30:52.092Z,78.73
2019-02-02T08:33:15.243Z,78.67
2019-02-02T08:35:45.355Z,78.77
2019-02-02T08:38:15.648Z,78.82
2019-02-02T08:40:45.860Z,78.90
2019-02-02T08:43:16.101Z,78.64
2019-02-02T08:45:46.230Z,78.49
2019-02-02T08:48:16.344Z,78.29
2019-02-02T08:50:46.469Z,77.94
2019-02-02T08:53:16.625Z,77.76
2019-02-02T08:55:46.810Z,77.81
2019-02-02T08:58:17.231Z,77.52
2019-02-02T09:00:47.605Z,77.67
2019-02-02T09:03:17.745Z,77.34
2019-02-02T09:05:50.799Z,77.51
2019-02-02T09:08:19.648Z,77.24
2019-02-02T09:10:49.784Z,77.04
2019-02-02T09:13:19.895Z,77.10
2019-02-02T09:15:50.126Z,76.79
2019-02-02T09:18:20.220Z,76.73
2019-02-02T09:20:50.344Z,76.95
2019-02-02T09:23:20.525Z,77.18
2019-02-02T09:25:50.652Z,77.43
2019-02-02T09:28:20.776Z,77.14
2019-02-02T09:30:51.038Z,77.14
2019-02-02T09:33:21.160Z,77.41
2019-02-02T09:35:51.489Z,77.62
2019-02-02T09:38:21.695Z,77.87
2019-02-02T09:40:51.833Z,77.64
2019-02-02T09:43:22.047Z,77.80
2019-02-02T09:45:52.129Z,77.76
2019-02-02T09:48:22.520Z,77.81
2019-02-02T09:50:52.647Z,77.91
2019-02-02T09:53:22.763Z,78.18
2019-02-02T09:55:52.870Z,78.20
2019-02-02T09:58:23.311Z,78.42
2019-02-02T10:00:53.591Z,78.64
2019-02-02T10:03:24.006Z,78.81
2019-02-02T10:05:54.260Z,78.85
2019-02-02T10:08:24.381Z,78.87
2019-02-02T10:10:54.749Z,79.00
2019-02-02T10:13:26.188Z,78.90
2019-02-02T10:15:56.376Z,79.00
2019-02-02T10:18:26.494Z,78.97
2019-02-02T10:21:03.697Z,78.98
2019-02-02T10:23:28.653Z,79.19
2019-02-02T10:26:01.642Z,79.02
2019-02-02T10:28:31.864Z,78.85
2019-02-02T10:31:01.986Z,78.74
2019-02-02T10:33:32.259Z,78.75
2019-02-02T10:36:02.445Z,78.67
2019-02-02T10:38:32.596Z,78.75
2019-02-02T10:41:02.726Z,78.69
2019-02-02T10:43:32.987Z,78.83
2019-02-02T10:46:03.120Z,78.44
2019-02-02T10:48:33.489Z,78.51
2019-02-02T10:51:03.606Z,78.71
2019-02-02T10:53:33.780Z,78.62
2019-02-02T10:56:04.383Z,78.62
2019-02-02T10:58:34.505Z,78.65
2019-02-02T11:01:04.835Z,78.69
2019-02-02T11:03:35.940Z,78.87
2019-02-02T11:06:06.157Z,78.74
2019-02-02T11:08:36.434Z,78.69
2019-02-02T11:11:06.580Z,78.65
2019-02-02T11:13:36.877Z,78.71
2019-02-02T11:16:08.422Z,78.77
2019-02-02T11:18:39.120Z,78.91
2019-02-02T11:21:09.453Z,78.69
2019-02-02T11:23:39.591Z,78.77
2019-02-02T11:26:09.889Z,78.58
2019-02-02T11:28:40.078Z,78.74
2019-02-02T11:31:10.606Z,78.69
2019-02-02T11:33:40.757Z,78.57
2019-02-02T11:36:10.891Z,78.47
2019-02-02T11:38:41.613Z,78.00
2019-02-02T11:41:11.750Z,78.29
2019-02-02T11:43:42.043Z,78.20
2019-02-02T11:46:12.419Z,77.71
2019-02-02T11:48:42.541Z,77.39
2019-02-02T11:51:12.671Z,77.31
2019-02-02T11:53:44.147Z,77.19
2019-02-02T11:56:15.995Z,76.85
2019-02-02T11:58:46.141Z,77.37
2019-02-02T12:01:16.282Z,77.05
2019-02-02T12:03:46.423Z,77.01
2019-02-02T12:06:16.564Z,76.83
2019-02-02T12:08:49.280Z,76.70
2019-02-02T12:11:18.529Z,76.88
2019-02-02T12:13:48.777Z,76.93
2019-02-02T12:16:18.907Z,76.95
2019-02-02T12:18:49.031Z,77.03
2019-02-02T12:21:19.225Z,77.09
2019-02-02T12:23:50.184Z,77.18
2019-02-02T12:26:20.319Z,77.46
2019-02-02T12:28:50.511Z,77.56
2019-02-02T12:31:20.747Z,77.78
2019-02-02T12:33:50.932Z,77.73
2019-02-02T12:36:21.064Z,78.01
2019-02-02T12:38:52.348Z,78.05
2019-02-02T12:41:22.457Z,78.32
2019-02-02T12:43:52.589Z,78.47
2019-02-02T12:46:22.710Z,78.33
2019-02-02T12:48:52.801Z,78.51
2019-02-02T12:51:22.944Z,78.74
2019-02-02T12:53:55.710Z,78.93
2019-02-02T12:56:24.883Z,79.05
2019-02-02T12:58:55.063Z,79.08
2019-02-02T13:01:25.234Z,79.06
2019-02-02T13:04:01.675Z,79.12
2019-02-02T13:06:27.167Z,79.14
2019-02-02T13:08:57.290Z,79.10
2019-02-02T13:11:27.475Z,79.11
2019-02-02T13:13:57.639Z,79.30
2019-02-02T13:16:27.774Z,79.54
2019-02-02T13:18:57.912Z,79.66
2019-02-02T13:21:28.039Z,79.52
2019-02-02T13:23:58.173Z,79.66
2019-02-02T13:26:28.272Z,79.84
2019-02-02T13:28:58.390Z,80.00
2019-02-02T13:31:28.507Z,80.02
2019-02-02T13:33:58.620Z,80.13
2019-02-02T13:36:28.739Z,80.02
2019-02-02T13:38:58.877Z,80.02
2019-02-02T13:41:30.050Z,80.09
2019-02-02T13:44:00.172Z,80.36
2019-02-02T13:46:30.296Z,80.21
2019-02-02T13:49:00.415Z,80.19
2019-02-02T13:51:30.519Z,79.91
2019-02-02T13:54:00.660Z,80.12
2019-02-02T13:56:30.818Z,80.18
2019-02-02T13:59:00.942Z,80.21
2019-02-02T14:01:41.662Z,80.16
2019-02-02T14:04:02.981Z,80.09
2019-02-02T14:06:33.112Z,80.26
2019-02-02T14:09:04.685Z,80.11
2019-02-02T14:11:35.184Z,80.03
2019-02-02T14:14:05.564Z,79.87
2019-02-02T14:16:35.669Z,79.88
2019-02-02T14:19:05.810Z,79.85
2019-02-02T14:21:36.099Z,79.69
2019-02-02T14:24:06.282Z,79.85
2019-02-02T14:26:36.412Z,79.74
2019-02-02T14:29:06.543Z,79.84
2019-02-02T14:31:36.675Z,79.85
2019-02-02T14:34:06.870Z,79.84
2019-02-02T14:36:37.044Z,79.86
2019-02-02T14:39:09.433Z,80.04
2019-02-02T14:41:39.639Z,79.93
2019-02-02T14:44:09.766Z,79.93
2019-02-02T14:46:39.966Z,79.77
2019-02-02T14:49:10.231Z,79.87
2019-02-02T14:51:40.342Z,79.84
2019-02-02T14:54:10.886Z,79.78
2019-02-02T14:56:47.650Z,79.57
2019-02-02T14:59:12.926Z,79.74
2019-02-02T15:01:43.072Z,79.72
2019-02-02T15:04:13.201Z,79.72
2019-02-02T15:06:43.308Z,79.78
2019-02-02T15:09:13.686Z,79.88
2019-02-02T15:11:44.017Z,80.15
2019-02-02T15:14:14.317Z,80.16
2019-02-02T15:16:44.456Z,80.23
2019-02-02T15:19:14.582Z,80.40
2019-02-02T15:21:46.441Z,80.37
2019-02-02T15:24:18.201Z,80.57
2019-02-02T15:26:48.343Z,80.93
2019-02-02T15:29:18.468Z,81.09
2019-02-02T15:31:48.616Z,81.10
2019-02-02T15:34:18.769Z,81.23
2019-02-02T15:36:48.897Z,81.20
2019-02-02T15:39:19.016Z,81.33
2019-02-02T15:41:53.054Z,81.32
2019-02-02T15:44:21.005Z,81.35
2019-02-02T15:46:51.157Z,81.51
2019-02-02T15:49:21.309Z,81.59
2019-02-02T15:51:51.536Z,81.54
2019-02-02T15:54:21.663Z,81.53
2019-02-02T15:56:52.211Z,81.46
2019-02-02T15:59:22.337Z,81.64
2019-02-02T16:01:52.455Z,81.68
2019-02-02T16:04:23.709Z,81.69
2019-02-02T16:06:53.849Z,81.85
2019-02-02T16:09:23.993Z,81.81
2019-02-02T16:11:54.133Z,81.85
2019-02-02T16:14:24.312Z,82.21
2019-02-02T16:16:54.443Z,82.15
2019-02-02T16:19:24.558Z,82.16
2019-02-02T16:21:54.675Z,82.03
2019-02-02T16:24:24.800Z,82.16
2019-02-02T16:26:55.072Z,82.12
2019-02-02T16:29:25.305Z,82.07
2019-02-02T16:31:55.428Z,82.22
2019-02-02T16:34:25.538Z,82.23
2019-02-02T16:36:55.822Z,82.18
2019-02-02T16:39:26.085Z,82.30
2019-02-02T16:41:56.237Z,82.08
2019-02-02T16:44:26.396Z,82.13
2019-02-02T16:46:56.522Z,82.08
2019-02-02T16:49:26.652Z,82.08
2019-02-02T16:51:56.805Z,82.08
2019-02-02T16:54:26.969Z,82.10
2019-02-02T16:56:57.112Z,82.02
2019-02-02T16:59:27.260Z,82.02
2019-02-02T17:01:57.387Z,82.10
2019-02-02T17:04:27.511Z,82.16
2019-02-02T17:06:57.641Z,82.14
2019-02-02T17:09:27.771Z,82.23
2019-02-02T17:11:57.882Z,82.23
2019-02-02T17:14:28.051Z,82.22
2019-02-02T17:16:58.179Z,82.24
2019-02-02T17:19:28.318Z,82.19
2019-02-02T17:21:58.444Z,82.28
2019-02-02T17:24:28.551Z,82.18
2019-02-02T17:26:58.669Z,82.06
2019-02-02T17:29:28.806Z,82.10
2019-02-02T17:31:58.937Z,82.16
2019-02-02T17:34:29.101Z,82.21
2019-02-02T17:36:59.217Z,82.09
2019-02-02T17:39:29.366Z,82.17
2019-02-02T17:41:59.460Z,82.23
2019-02-02T17:44:29.582Z,82.20
2019-02-02T17:46:59.699Z,82.27
2019-02-02T17:49:29.899Z,82.07
2019-02-02T17:51:59.989Z,82.05
2019-02-02T17:54:30.101Z,82.24
2019-02-02T17:57:00.211Z,82.15
2019-02-02T17:59:30.382Z,82.13
2019-02-02T18:02:00.746Z,82.24
2019-02-02T18:04:39.280Z,82.19
2019-02-02T18:07:02.851Z,82.16
2019-02-02T18:09:32.984Z,82.29
2019-02-02T18:12:03.128Z,82.15
2019-02-02T18:14:34.108Z,82.11
2019-02-02T18:17:08.925Z,82.29
2019-02-02T18:19:39.046Z,82.24
2019-02-02T18:22:09.443Z,81.99
2019-02-02T18:24:39.499Z,82.03
2019-02-02T18:27:09.624Z,82.11
2019-02-02T18:29:40.005Z,82.10
2019-02-02T18:32:13.139Z,81.98
2019-02-02T18:34:50.971Z,81.93
2019-02-02T18:37:13.928Z,82.07
2019-02-02T18:39:44.060Z,82.05
2019-02-02T18:42:14.260Z,82.08
2019-02-02T18:44:44.400Z,82.07
2019-02-02T18:47:14.519Z,82.10
2019-02-02T18:49:44.665Z,82.02
2019-02-02T18:52:14.816Z,81.98
2019-02-02T18:54:45.011Z,82.16
2019-02-02T18:57:15.121Z,82.12
2019-02-02T18:59:45.273Z,82.14
2019-02-02T19:02:16.196Z,82.11
2019-02-02T19:04:46.315Z,82.05
2019-02-02T19:07:16.438Z,81.85
2019-02-02T19:09:46.541Z,81.84
2019-02-02T19:12:16.682Z,81.87
2019-02-02T19:14:47.071Z,81.84
2019-02-02T19:17:17.228Z,81.79
2019-02-02T19:19:48.834Z,81.79
2019-02-02T19:22:19.800Z,81.79
2019-02-02T19:24:50.947Z,81.68
2019-02-02T19:27:21.073Z,81.73
2019-02-02T19:29:51.186Z,81.67
2019-02-02T19:32:21.711Z,81.45
2019-02-02T19:34:51.833Z,81.40
2019-02-02T19:37:21.955Z,81.47
2019-02-02T19:39:52.073Z,81.63
2019-02-02T19:42:22.219Z,81.70
2019-02-02T19:44:52.711Z,81.63
2019-02-02T19:47:22.799Z,81.49
2019-02-02T19:49:52.959Z,81.66
2019-02-02T19:52:23.194Z,81.66
2019-02-02T19:54:53.294Z,81.71
2019-02-02T19:57:23.410Z,81.76
2019-02-02T19:59:53.550Z,81.88
2019-02-02T20:02:23.699Z,81.88
2019-02-02T20:04:54.053Z,82.13
2019-02-02T20:07:24.199Z,82.28
2019-02-02T20:09:55.372Z,82.37
2019-02-02T20:12:25.515Z,82.42
2019-02-02T20:14:56.807Z,82.51
2019-02-02T20:17:27.286Z,82.62
2019-02-02T20:19:57.666Z,82.50
2019-02-02T20:22:27.908Z,82.68
2019-02-02T20:24:58.447Z,82.77
2019-02-02T20:27:28.689Z,82.75
2019-02-02T20:29:58.787Z,82.76
2019-02-02T20:32:28.935Z,82.94
2019-02-02T20:34:59.057Z,82.84
2019-02-02T20:37:29.566Z,82.99
2019-02-02T20:40:00.726Z,83.04
2019-02-02T20:42:31.110Z,83.11
2019-02-02T20:45:01.217Z,83.27
2019-02-02T20:47:32.025Z,83.15
2019-02-02T20:50:04.081Z,83.29
2019-02-02T20:52:34.221Z,83.19
2019-02-02T20:55:05.489Z,83.19
2019-02-02T20:57:35.613Z,83.10
2019-02-02T21:00:08.403Z,83.29
2019-02-02T21:02:39.491Z,83.37
2019-02-02T21:05:09.711Z,83.37
2019-02-02T21:07:39.881Z,83.52
2019-02-02T21:10:12.665Z,83.57
2019-02-02T21:12:42.779Z,83.67
2019-02-02T21:15:13.144Z,83.68
2019-02-02T21:17:43.272Z,83.47
2019-02-02T21:20:15.809Z,83.58
2019-02-02T21:22:47.149Z,83.74
2019-02-02T21:25:17.902Z,83.66
2019-02-02T21:27:48.197Z,83.70
2019-02-02T21:30:23.373Z,83.67
2019-02-02T21:32:54.598Z,83.72
2019-02-02T21:35:26.219Z,83.72
2019-02-02T21:37:56.371Z,83.80
2019-02-02T21:40:28.784Z,83.96
2019-02-02T21:42:58.882Z,83.86
2019-02-02T21:45:29.225Z,84.05
2019-02-02T21:47:59.339Z,83.97
2019-02-02T21:50:29.454Z,84.06
2019-02-02T21:52:59.588Z,83.93
2019-02-02T21:55:30.188Z,83.86
2019-02-02T21:58:00.299Z,83.97
2019-02-02T22:00:32.888Z,84.07
2019-02-02T22:03:03.069Z,83.89
2019-02-02T22:05:33.315Z,83.86
2019-02-02T22:08:03.445Z,83.98
2019-02-02T22:10:33.622Z,83.67
2019-02-02T22:13:03.775Z,83.81
2019-02-02T22:15:35.184Z,83.85
2019-02-02T22:18:05.677Z,83.76
2019-02-02T22:20:35.887Z,83.71
2019-02-02T22:23:06.057Z,83.67
2019-02-02T22:25:37.168Z,83.53
2019-02-02T22:28:07.271Z,83.62
2019-02-02T22:30:38.189Z,83.46
2019-02-02T22:33:08.364Z,83.55
2019-02-02T22:35:38.489Z,83.67
2019-02-02T22:38:08.596Z,83.71
2019-02-02T22:40:38.715Z,83.52
2019-02-02T22:43:08.812Z,83.72
2019-02-02T22:45:38.918Z,83.79
2019-02-02T22:48:09.020Z,83.76
2019-02-02T22:50:39.144Z,84.31
2019-02-02T22:53:09.249Z,84.32
2019-02-02T22:55:39.372Z,84.50
2019-02-02T22:58:09.479Z,84.65
2019-02-02T23:01:09.502Z,84.42
2019-02-02T23:03:45.988Z,84.31
2019-02-02T23:07:18.594Z,84.42
2019-02-02T23:10:41.408Z,84.19
2019-02-02T23:13:42.782Z,84.50
2019-02-02T23:16:27.033Z,84.44
2019-02-02T23:18:57.978Z,84.48
2019-02-02T23:21:29.155Z,84.38
2019-02-02T23:23:59.285Z,84.42
2019-02-02T23:26:29.498Z,84.59
2019-02-02T23:28:59.857Z,84.74
2019-02-02T23:31:30.083Z,84.44
2019-02-02T23:34:00.525Z,84.41
2019-02-02T23:36:30.802Z,84.54
2019-02-02T23:39:01.131Z,84.42
2019-02-02T23:41:33.026Z,84.51
2019-02-02T23:44:03.359Z,84.68
2019-02-02T23:46:33.593Z,84.91
2019-02-02T23:49:03.938Z,84.99
2019-02-02T23:51:35.133Z,84.77
2019-02-02T23:54:05.388Z,84.63
2019-02-02T23:56:35.503Z,84.57
2019-02-02T23:59:05.951Z,84.59
